Etusivu
METAR-TAF:

METAR-TAF

Lentoasemat :

Kelibia, Tunisia

Leveyspiiri: 36-51N, Pituuspiiri: 011-05E, korkeus merenpinnasta: 29 m

Tämänhetkinen sää

Tämä raportti tehtiin 54 minuuttia sitten, kello 08.00 UTC
Tuuli 4 kn etelästä/kaakosta, vaihdellen idän/koillisen ja lounaan välillä
Lämpötila 28°C
Kosteus 84%
Ilmanpaine 1012 hPa
Näkyvyys 10 km tai enemmän
Muutamia pilviä 1600 ft:n korkeudessa

METAR: DTTL 130800Z 15004KT 070V230 9999 FEW016 28/25 Q1012

Aika: 09:54 (08:54 UTC)


TAF: puuttuu

Säähavainnot ja -ennusteet yli 4000 lentoasemalta (METAR- ja TAF-raportit).

Käytössä olevat sääasemat on merkitty karttaan keltaisilla ja punaisilla pisteillä.

Aseta hiiri pisteen päälle nähdäksesi sääaseman nimen.

Klikkaa sitten nähdäksesi säähavainnot ja -ennusteet.

Kartan vaihtaminen: klikkaa mustalla rastilla varustettuja vihreitä pisteitä, niin voit zoomata sisään; viivalla varustettua vihreää pistettä, niin voit zoomata ulos tai vihreitä nuolia, niin pääset viereisille kartoille.


METAR-TAF: